»·PEaware :: N5873W KSBA-KSNA

N5873W :: KSBA-KSNA

FLIGHT INFORMATION

Flight Status: Arrived
Operator: Privately registered:
United States
More flights under this callsign
Pilot: Anonymous 27704 (27704)
Aircraft: Unknown
(DA62)
More flights by this aircraft type
Origin: KSBA Santa Barbara Mun
United States
Destination: KSNA John Wayne-Orange Co
United States
More flights between these airports :: More routes between these airports
Route: +LAX
File this flight plan on PilotEdge
Remarks: Coliseum Route
Altitude:
(Current/Filed)
8,500ft
Speed:
(Current/Filed)
130kts
Departed: 24-Mar-20 04:35 PM
Arrived: 24-Mar-20 05:34 PM
Distance/Time
Traveled:
108nm/0:59
Distance/Time
To Go:
Arrived

Flight Plot

Page will automatically refresh every two minutes.


Map Options




Map Legend


Flown Route
Filed Route
Departure Airport
Arrival Airport
Navaid (VOR, NDB)
Fix

Horizontal Profiles

Position Reports

Time Latitude Longitude Heading Altitude Ground
Speed
24-Mar-20 16:27 34.429376 -119.844283 154 14ft 0kts
24-Mar-20 16:29 34.429376 -119.844283 154 14ft 0kts
24-Mar-20 16:29 34.429376 -119.844283 154 14ft 0kts
24-Mar-20 16:30 34.429376 -119.844283 154 14ft 0kts
24-Mar-20 16:31 34.429376 -119.844283 154 14ft 0kts
24-Mar-20 16:32 34.429797 -119.842087 62 14ft 0kts
24-Mar-20 16:33 34.429010 -119.841074 167 14ft 26kts
24-Mar-20 16:34 34.404937 -119.831796 170 936ft 103kts
24-Mar-20 16:35 34.371056 -119.816662 164 1403ft 157kts
24-Mar-20 16:36 34.330747 -119.792705 159 1386ft 149kts
24-Mar-20 16:37 34.296258 -119.768498 156 1333ft 142kts
24-Mar-20 16:38 34.265770 -119.740407 108 2213ft 146kts
24-Mar-20 16:39 34.257322 -119.693148 104 3215ft 142kts
24-Mar-20 16:40 34.249411 -119.646835 104 4221ft 140kts
24-Mar-20 16:41 34.241648 -119.600756 103 5231ft 140kts
24-Mar-20 16:42 34.232777 -119.549348 103 5543ft 178kts
24-Mar-20 16:43 34.221686 -119.487826 103 5539ft 189kts
24-Mar-20 16:44 34.211715 -119.431715 103 5535ft 160kts
24-Mar-20 16:45 34.202641 -119.379857 103 5539ft 156kts
24-Mar-20 16:46 34.194262 -119.331815 104 5525ft 156kts
24-Mar-20 16:47 34.185431 -119.280841 104 5525ft 154kts
24-Mar-20 16:48 34.181957 -119.230443 65 5529ft 153kts
24-Mar-20 16:49 34.195579 -119.181345 69 5524ft 154kts
24-Mar-20 16:50 34.208701 -119.132273 69 5523ft 154kts
24-Mar-20 16:51 34.221474 -119.082762 88 5511ft 155kts
24-Mar-20 16:52 34.218572 -119.031394 90 5520ft 154kts
24-Mar-20 16:53 34.221610 -118.979575 85 5519ft 154kts
24-Mar-20 16:54 34.225032 -118.927858 85 5522ft 154kts
24-Mar-20 16:55 34.228608 -118.876763 85 6530ft 156kts
24-Mar-20 16:56 34.232604 -118.823859 85 7535ft 160kts
24-Mar-20 16:57 34.231001 -118.770083 96 8538ft 161kts
24-Mar-20 16:58 34.227786 -118.715397 96 9480ft 169kts
24-Mar-20 16:59 34.223886 -118.656839 96 9503ft 169kts
24-Mar-20 17:00 34.220304 -118.601452 94 9500ft 163kts
24-Mar-20 17:01 34.217198 -118.547077 94 9496ft 161kts
24-Mar-20 17:02 34.214525 -118.493032 96 9495ft 160kts
24-Mar-20 17:03 34.191539 -118.452938 152 9497ft 143kts
24-Mar-20 17:04 34.160422 -118.422696 148 9498ft 143kts
24-Mar-20 17:05 34.131687 -118.391199 146 9498ft 142kts
24-Mar-20 17:06 34.103897 -118.359692 149 9495ft 139kts
24-Mar-20 17:07 34.078000 -118.331519 144 9489ft 139kts
24-Mar-20 17:08 34.052555 -118.298241 143 9493ft 138kts
24-Mar-20 17:09 34.025391 -118.269549 155 9500ft 133kts
24-Mar-20 17:10 33.997194 -118.241499 151 9506ft 136kts
24-Mar-20 17:11 33.968413 -118.212653 151 9518ft 137kts
24-Mar-20 17:12 33.939357 -118.184266 153 9521ft 137kts
24-Mar-20 17:13 33.909204 -118.156454 153 9520ft 139kts
24-Mar-20 17:14 33.877804 -118.128501 156 9513ft 139kts
24-Mar-20 17:15 33.845780 -118.102224 155 9514ft 139kts
24-Mar-20 17:16 33.813879 -118.075317 153 9524ft 139kts
24-Mar-20 17:17 33.785009 -118.043260 151 9526ft 139kts
24-Mar-20 17:18 33.755556 -118.014347 151 8720ft 132kts
24-Mar-20 17:19 33.727410 -117.986902 151 7707ft 126kts
24-Mar-20 17:20 33.699884 -117.960638 151 6694ft 123kts
24-Mar-20 17:21 33.677173 -117.972952 235 5675ft 100kts
24-Mar-20 17:22 33.661018 -118.000514 235 4668ft 100kts
24-Mar-20 17:23 33.644729 -118.028396 234 3606ft 105kts
24-Mar-20 17:24 33.627783 -118.057488 215 2505ft 109kts
24-Mar-20 17:25 33.615444 -118.032213 70 1531ft 123kts
24-Mar-20 17:26 33.637893 -118.006917 15 1516ft 124kts
24-Mar-20 17:27 33.671597 -117.993093 17 1513ft 128kts
24-Mar-20 17:28 33.701450 -117.968581 64 1290ft 142kts
24-Mar-20 17:29 33.693888 -117.924885 114 1089ft 142kts
24-Mar-20 17:30 33.699341 -117.886110 33 926ft 107kts
24-Mar-20 17:31 33.706885 -117.861746 132 555ft 88kts
24-Mar-20 17:32 33.688100 -117.860780 212 265ft 74kts
24-Mar-20 17:33 33.678097 -117.868395 293 46ft 0kts
24-Mar-20 17:34 33.678033 -117.868834 237 46ft 16kts
24-Mar-20 17:35 33.676148 -117.871082 219 50ft 0kts

Navigation Log

Ident Type
Flight plan parsing failed, navigation log unavailable